sensor_id;sensor_type;location;lat;lon;timestamp;pressure;altitude;pressure_sealevel;temperature;humidity
13312;BME280;34033;48.672;9.376;2023-05-08T00:01:22;98781.06;;;18.19;84.98
13312;BME280;34033;48.672;9.376;2023-05-08T00:03:48;98780.72;;;18.17;84.63
13312;BME280;34033;48.672;9.376;2023-05-08T00:06:15;98776.66;;;18.18;84.94
13312;BME280;34033;48.672;9.376;2023-05-08T00:08:40;98783.56;;;18.17;84.59
13312;BME280;34033;48.672;9.376;2023-05-08T00:11:06;98784.78;;;18.16;84.56
13312;BME280;34033;48.672;9.376;2023-05-08T00:13:31;98772.25;;;18.17;84.54
13312;BME280;34033;48.672;9.376;2023-05-08T00:15:56;98771.84;;;18.15;84.33
13312;BME280;34033;48.672;9.376;2023-05-08T00:18:22;98780.00;;;18.13;84.31
13312;BME280;34033;48.672;9.376;2023-05-08T00:20:47;98785.66;;;18.13;84.44
13312;BME280;34033;48.672;9.376;2023-05-08T00:23:12;98784.88;;;18.13;84.44
13312;BME280;34033;48.672;9.376;2023-05-08T00:25:38;98784.47;;;18.11;84.21
13312;BME280;34033;48.672;9.376;2023-05-08T00:28:03;98776.81;;;18.11;84.38
13312;BME280;34033;48.672;9.376;2023-05-08T00:30:28;98786.88;;;18.12;84.47
13312;BME280;34033;48.672;9.376;2023-05-08T00:32:54;98781.22;;;18.12;84.54
13312;BME280;34033;48.672;9.376;2023-05-08T00:35:19;98782.84;;;18.13;84.62
13312;BME280;34033;48.672;9.376;2023-05-08T00:37:44;98775.56;;;18.12;84.50
13312;BME280;34033;48.672;9.376;2023-05-08T00:40:10;98777.22;;;18.10;84.50
13312;BME280;34033;48.672;9.376;2023-05-08T00:42:36;98780.84;;;18.10;84.60
13312;BME280;34033;48.672;9.376;2023-05-08T00:45:02;98777.59;;;18.12;84.47
13312;BME280;34033;48.672;9.376;2023-05-08T00:47:29;98778.41;;;18.12;84.49
13312;BME280;34033;48.672;9.376;2023-05-08T00:49:55;98778.03;;;18.10;84.48
13312;BME280;34033;48.672;9.376;2023-05-08T00:52:21;98778.41;;;18.12;84.04
13312;BME280;34033;48.672;9.376;2023-05-08T00:54:47;98783.69;;;18.10;84.43
13312;BME280;34033;48.672;9.376;2023-05-08T00:57:14;98786.88;;;18.12;84.08
13312;BME280;34033;48.672;9.376;2023-05-08T00:59:40;98786.50;;;18.10;84.06
13312;BME280;34033;48.672;9.376;2023-05-08T01:02:07;98790.56;;;18.09;84.17
13312;BME280;34033;48.672;9.376;2023-05-08T01:04:34;98788.19;;;18.08;84.38
13312;BME280;34033;48.672;9.376;2023-05-08T01:07:01;98787.38;;;18.07;84.19
13312;BME280;34033;48.672;9.376;2023-05-08T01:09:27;98797.09;;;18.06;84.43
13312;BME280;34033;48.672;9.376;2023-05-08T01:12:27;98793.91;;;18.04;84.65
13312;BME280;34033;48.672;9.376;2023-05-08T01:23:23;98792.78;;;17.98;84.61
13312;BME280;34033;48.672;9.376;2023-05-08T01:26:06;98800.44;;;18.01;84.72
13312;BME280;34033;48.672;9.376;2023-05-08T01:28:53;98791.16;;;18.01;84.60
13312;BME280;34033;48.672;9.376;2023-05-08T01:31:37;98803.69;;;18.00;84.47
13312;BME280;34033;48.672;9.376;2023-05-08T01:34:10;98809.75;;;17.98;84.64
13312;BME280;34033;48.672;9.376;2023-05-08T01:41:49;98802.16;;;17.95;84.61
13312;BME280;34033;48.672;9.376;2023-05-08T01:44:22;98798.94;;;17.93;84.86
13312;BME280;34033;48.672;9.376;2023-05-08T01:46:50;98800.97;;;17.92;84.60
13312;BME280;34033;48.672;9.376;2023-05-08T01:49:25;98806.28;;;17.90;85.18
13312;BME280;34033;48.672;9.376;2023-05-08T01:52:17;98808.34;;;17.86;85.69
13312;BME280;34033;48.672;9.376;2023-05-08T01:54:49;98809.53;;;17.89;85.65
13312;BME280;34033;48.672;9.376;2023-05-08T01:57:17;98804.59;;;17.93;85.64
13312;BME280;34033;48.672;9.376;2023-05-08T01:59:44;98816.00;;;17.89;85.18
13312;BME280;34033;48.672;9.376;2023-05-08T02:02:11;98814.78;;;17.90;84.95
13312;BME280;34033;48.672;9.376;2023-05-08T02:04:38;98817.16;;;17.92;84.99
13312;BME280;34033;48.672;9.376;2023-05-08T02:07:05;98815.50;;;17.95;84.60
13312;BME280;34033;48.672;9.376;2023-05-08T02:09:32;98820.72;;;17.96;84.17
13312;BME280;34033;48.672;9.376;2023-05-08T02:11:59;98819.13;;;17.95;84.75
13312;BME280;34033;48.672;9.376;2023-05-08T02:14:25;98816.72;;;17.93;85.06
13312;BME280;34033;48.672;9.376;2023-05-08T02:16:53;98821.56;;;17.93;85.25
13312;BME280;34033;48.672;9.376;2023-05-08T02:19:20;98821.56;;;17.93;85.55
13312;BME280;34033;48.672;9.376;2023-05-08T02:21:48;98823.19;;;17.94;85.71
13312;BME280;34033;48.672;9.376;2023-05-08T02:24:16;98816.28;;;17.95;85.70
13312;BME280;34033;48.672;9.376;2023-05-08T02:26:43;98820.72;;;17.96;85.86
13312;BME280;34033;48.672;9.376;2023-05-08T02:29:09;98819.50;;;17.97;85.48
13312;BME280;34033;48.672;9.376;2023-05-08T02:31:35;98823.09;;;17.98;85.67
13312;BME280;34033;48.672;9.376;2023-05-08T02:34:03;98813.41;;;17.99;85.44
13312;BME280;34033;48.672;9.376;2023-05-08T02:36:29;98825.50;;;17.99;85.44
13312;BME280;34033;48.672;9.376;2023-05-08T02:38:56;98824.34;;;17.97;85.58
13312;BME280;34033;48.672;9.376;2023-05-08T02:41:25;98821.53;;;17.97;84.99
13312;BME280;34033;48.672;9.376;2023-05-08T02:43:52;98821.53;;;17.97;85.02
13312;BME280;34033;48.672;9.376;2023-05-08T02:46:43;98819.94;;;17.96;84.96
13312;BME280;34033;48.672;9.376;2023-05-08T02:54:52;98818.75;;;17.93;86.03
13312;BME280;34033;48.672;9.376;2023-05-08T02:57:36;98817.53;;;17.94;86.21
13312;BME280;34033;48.672;9.376;2023-05-08T03:02:41;98814.28;;;17.96;86.12
13312;BME280;34033;48.672;9.376;2023-05-08T03:05:29;98811.03;;;17.97;85.63
13312;BME280;34033;48.672;9.376;2023-05-08T03:07:56;98809.41;;;17.96;85.67
13312;BME280;34033;48.672;9.376;2023-05-08T03:10:28;98806.22;;;17.94;85.51
13312;BME280;34033;48.672;9.376;2023-05-08T03:12:56;98805.16;;;18.08;85.93
13312;BME280;34033;48.672;9.376;2023-05-08T03:15:26;98804.00;;;18.05;85.13
13312;BME280;34033;48.672;9.376;2023-05-08T03:17:55;98806.94;;;17.98;85.19
13312;BME280;34033;48.672;9.376;2023-05-08T03:20:22;98809.84;;;17.95;85.27
13312;BME280;34033;48.672;9.376;2023-05-08T03:22:49;98816.78;;;17.90;85.11
13312;BME280;34033;48.672;9.376;2023-05-08T03:25:16;98814.78;;;17.90;85.28
13312;BME280;34033;48.672;9.376;2023-05-08T03:27:44;98815.56;;;17.91;85.59
13312;BME280;34033;48.672;9.376;2023-05-08T03:30:10;98821.16;;;17.95;85.98
13312;BME280;34033;48.672;9.376;2023-05-08T03:32:36;98818.25;;;17.98;86.04
13312;BME280;34033;48.672;9.376;2023-05-08T03:35:04;98812.59;;;17.98;85.52
13312;BME280;34033;48.672;9.376;2023-05-08T03:37:30;98813.47;;;17.95;85.82
13312;BME280;34033;48.672;9.376;2023-05-08T03:39:56;98807.81;;;17.95;85.34
13312;BME280;34033;48.672;9.376;2023-05-08T03:42:23;98804.59;;;17.93;85.72
13312;BME280;34033;48.672;9.376;2023-05-08T03:44:50;98817.16;;;17.92;85.92
13312;BME280;34033;48.672;9.376;2023-05-08T03:47:20;98815.19;;;17.89;85.99
13312;BME280;34033;48.672;9.376;2023-05-08T03:49:47;98811.19;;;17.86;86.15
13312;BME280;34033;48.672;9.376;2023-05-08T03:52:13;98815.19;;;17.89;86.20
13312;BME280;34033;48.672;9.376;2023-05-08T03:54:38;98824.09;;;17.87;85.81
13312;BME280;34033;48.672;9.376;2023-05-08T03:57:04;98821.72;;;17.86;85.86
13312;BME280;34033;48.672;9.376;2023-05-08T04:02:33;98818.13;;;18.05;85.12
13312;BME280;34033;48.672;9.376;2023-05-08T04:05:20;98822.88;;;18.12;84.63
13312;BME280;34033;48.672;9.376;2023-05-08T04:08:00;98824.78;;;18.18;84.71
13312;BME280;34033;48.672;9.376;2023-05-08T04:10:28;98819.84;;;18.65;83.64
13312;BME280;34033;48.672;9.376;2023-05-08T04:15:32;98829.34;;;19.67;76.76
13312;BME280;34033;48.672;9.376;2023-05-08T04:18:01;98830.13;;;19.99;74.43
13312;BME280;34033;48.672;9.376;2023-05-08T04:20:29;98835.63;;;19.90;74.20
13312;BME280;34033;48.672;9.376;2023-05-08T04:22:57;98831.97;;;19.57;75.33
13312;BME280;34033;48.672;9.376;2023-05-08T04:25:22;98834.28;;;19.27;76.21
13312;BME280;34033;48.672;9.376;2023-05-08T04:27:49;98838.03;;;19.04;77.64
13312;BME280;34033;48.672;9.376;2023-05-08T04:30:16;98846.56;;;18.84;78.47
13312;BME280;34033;48.672;9.376;2023-05-08T04:32:41;98843.66;;;18.68;79.20
13312;BME280;34033;48.672;9.376;2023-05-08T04:35:07;98851.56;;;18.57;79.93
13312;BME280;34033;48.672;9.376;2023-05-08T04:37:33;98848.91;;;18.46;80.57
13312;BME280;34033;48.672;9.376;2023-05-08T04:39:59;98858.38;;;18.36;81.33
13312;BME280;34033;48.672;9.376;2023-05-08T04:42:25;98858.88;;;18.31;82.10
13312;BME280;34033;48.672;9.376;2023-05-08T04:44:51;98854.94;;;18.25;82.57
13312;BME280;34033;48.672;9.376;2023-05-08T04:47:16;98856.63;;;18.22;82.78
13312;BME280;34033;48.672;9.376;2023-05-08T04:49:42;98862.38;;;18.19;83.27
13312;BME280;34033;48.672;9.376;2023-05-08T04:52:07;98864.81;;;18.17;82.98
13312;BME280;34033;48.672;9.376;2023-05-08T04:54:33;98863.22;;;18.16;83.08
13312;BME280;34033;48.672;9.376;2023-05-08T04:56:58;98877.00;;;18.14;82.89
13312;BME280;34033;48.672;9.376;2023-05-08T04:59:24;98862.41;;;18.15;83.21
13312;BME280;34033;48.672;9.376;2023-05-08T05:01:50;98854.72;;;18.16;83.25
13312;BME280;34033;48.672;9.376;2023-05-08T05:04:15;98867.25;;;18.15;83.42
13312;BME280;34033;48.672;9.376;2023-05-08T05:06:40;98877.00;;;18.14;83.73
13312;BME280;34033;48.672;9.376;2023-05-08T05:09:06;98870.91;;;18.15;83.23
13312;BME280;34033;48.672;9.376;2023-05-08T05:11:31;98877.78;;;18.14;83.24
13312;BME280;34033;48.672;9.376;2023-05-08T05:13:57;98880.19;;;18.16;83.29
13312;BME280;34033;48.672;9.376;2023-05-08T05:16:22;98874.09;;;18.17;83.38
13312;BME280;34033;48.672;9.376;2023-05-08T05:18:48;98876.94;;;18.17;83.38
13312;BME280;34033;48.672;9.376;2023-05-08T05:21:13;98879.34;;;18.19;83.42
13312;BME280;34033;48.672;9.376;2023-05-08T05:23:38;98884.53;;;18.20;83.54
13312;BME280;34033;48.672;9.376;2023-05-08T05:26:04;98884.13;;;18.22;83.57
13312;BME280;34033;48.672;9.376;2023-05-08T05:28:29;98884.50;;;18.24;83.21
13312;BME280;34033;48.672;9.376;2023-05-08T05:30:55;98884.50;;;18.24;83.15
13312;BME280;34033;48.672;9.376;2023-05-08T05:33:20;98882.47;;;18.24;83.27
13312;BME280;34033;48.672;9.376;2023-05-08T05:35:45;98896.63;;;18.24;83.17
13312;BME280;34033;48.672;9.376;2023-05-08T05:38:11;98899.44;;;18.24;83.47
13312;BME280;34033;48.672;9.376;2023-05-08T05:40:36;98898.28;;;18.22;83.69
13312;BME280;34033;48.672;9.376;2023-05-08T05:43:01;98898.28;;;18.22;83.54
13312;BME280;34033;48.672;9.376;2023-05-08T05:45:27;98897.84;;;18.23;83.41
13312;BME280;34033;48.672;9.376;2023-05-08T05:47:52;98896.97;;;18.26;83.05
13312;BME280;34033;48.672;9.376;2023-05-08T05:50:18;98901.78;;;18.29;82.74
13312;BME280;34033;48.672;9.376;2023-05-08T05:52:44;98897.34;;;18.28;82.88
13312;BME280;34033;48.672;9.376;2023-05-08T05:55:10;98905.47;;;18.26;83.15
13312;BME280;34033;48.672;9.376;2023-05-08T05:57:35;98897.41;;;18.25;83.19
13312;BME280;34033;48.672;9.376;2023-05-08T06:00:02;98897.84;;;18.23;82.79
13312;BME280;34033;48.672;9.376;2023-05-08T06:02:28;98895.88;;;18.20;82.83
13312;BME280;34033;48.672;9.376;2023-05-08T06:04:53;98893.53;;;18.15;82.86
13312;BME280;34033;48.672;9.376;2023-05-08T06:07:18;98885.91;;;18.12;83.32
13312;BME280;34033;48.672;9.376;2023-05-08T06:09:45;98895.63;;;18.11;83.83
13312;BME280;34033;48.672;9.376;2023-05-08T06:12:11;98891.56;;;18.12;83.88
13312;BME280;34033;48.672;9.376;2023-05-08T06:14:36;98897.22;;;18.12;84.47
13312;BME280;34033;48.672;9.376;2023-05-08T06:17:01;98895.56;;;18.15;84.31
13312;BME280;34033;48.672;9.376;2023-05-08T06:19:27;98891.88;;;18.18;84.67
13312;BME280;34033;48.672;9.376;2023-05-08T06:21:52;98894.72;;;18.18;84.24
13312;BME280;34033;48.672;9.376;2023-05-08T06:24:18;98885.78;;;18.19;84.23
13312;BME280;34033;48.672;9.376;2023-05-08T06:26:43;98891.44;;;18.19;84.42
13312;BME280;34033;48.672;9.376;2023-05-08T06:29:09;98892.22;;;18.20;84.05
13312;BME280;34033;48.672;9.376;2023-05-08T06:31:34;98901.09;;;18.22;84.27
13312;BME280;34033;48.672;9.376;2023-05-08T06:34:00;98897.09;;;18.19;84.36
13312;BME280;34033;48.672;9.376;2023-05-08T06:36:25;98895.06;;;18.20;84.52
13312;BME280;34033;48.672;9.376;2023-05-08T06:38:51;98905.97;;;18.21;84.26
13312;BME280;34033;48.672;9.376;2023-05-08T06:41:16;98901.91;;;18.22;84.14
13312;BME280;34033;48.672;9.376;2023-05-08T06:43:42;98905.47;;;18.26;84.15
13312;BME280;34033;48.672;9.376;2023-05-08T06:46:07;98901.78;;;18.29;83.73
13312;BME280;34033;48.672;9.376;2023-05-08T06:48:33;98900.09;;;18.32;83.34
13312;BME280;34033;48.672;9.376;2023-05-08T06:50:58;98909.78;;;18.34;83.79
13312;BME280;34033;48.672;9.376;2023-05-08T06:53:23;98897.59;;;18.38;83.68
13312;BME280;34033;48.672;9.376;2023-05-08T06:55:49;98904.72;;;18.46;83.63
13312;BME280;34033;48.672;9.376;2023-05-08T06:58:14;98903.44;;;18.50;83.19
13312;BME280;34033;48.672;9.376;2023-05-08T07:00:41;98904.97;;;18.55;83.23
13312;BME280;34033;48.672;9.376;2023-05-08T07:03:06;98911.03;;;18.57;82.94
13312;BME280;34033;48.672;9.376;2023-05-08T07:05:31;98914.59;;;18.61;83.38
13312;BME280;34033;48.672;9.376;2023-05-08T07:07:57;98910.09;;;18.63;82.65
13312;BME280;34033;48.672;9.376;2023-05-08T07:10:22;98906.75;;;18.68;82.31
13312;BME280;34033;48.672;9.376;2023-05-08T07:12:48;98910.66;;;18.74;82.38
13312;BME280;34033;48.672;9.376;2023-05-08T07:15:13;98910.25;;;18.76;81.83
13312;BME280;34033;48.672;9.376;2023-05-08T07:17:39;98910.47;;;18.85;80.76
13312;BME280;34033;48.672;9.376;2023-05-08T07:20:06;98915.69;;;18.87;80.57
13312;BME280;34033;48.672;9.376;2023-05-08T07:22:32;98912.84;;;18.87;80.80
13312;BME280;34033;48.672;9.376;2023-05-08T07:24:57;98908.88;;;18.84;81.27
13312;BME280;34033;48.672;9.376;2023-05-08T07:27:22;98921.06;;;18.81;81.56
13312;BME280;34033;48.672;9.376;2023-05-08T07:29:48;98920.72;;;18.79;81.39
13312;BME280;34033;48.672;9.376;2023-05-08T07:32:13;98919.13;;;18.78;81.48
13312;BME280;34033;48.672;9.376;2023-05-08T07:34:39;98922.75;;;18.79;81.20
13312;BME280;34033;48.672;9.376;2023-05-08T07:37:05;98922.75;;;18.79;80.94
13312;BME280;34033;48.672;9.376;2023-05-08T07:39:30;98932.47;;;18.78;80.78
13312;BME280;34033;48.672;9.376;2023-05-08T07:41:55;98921.94;;;18.78;80.51
13312;BME280;34033;48.672;9.376;2023-05-08T07:44:21;98924.41;;;18.76;80.07
13312;BME280;34033;48.672;9.376;2023-05-08T07:46:46;98920.34;;;18.77;80.00
13312;BME280;34033;48.672;9.376;2023-05-08T07:49:12;98925.19;;;18.77;79.95
13312;BME280;34033;48.672;9.376;2023-05-08T07:51:37;98933.28;;;18.78;79.93
13312;BME280;34033;48.672;9.376;2023-05-08T07:54:03;98931.25;;;18.79;80.19
13312;BME280;34033;48.672;9.376;2023-05-08T07:56:28;98933.63;;;18.80;80.48
13312;BME280;34033;48.672;9.376;2023-05-08T07:58:54;98934.00;;;18.82;80.61
13312;BME280;34033;48.672;9.376;2023-05-08T08:01:19;98928.34;;;18.82;80.96
13312;BME280;34033;48.672;9.376;2023-05-08T08:03:45;98940.03;;;18.84;80.96
13312;BME280;34033;48.672;9.376;2023-05-08T08:06:10;98939.59;;;18.86;81.08
13312;BME280;34033;48.672;9.376;2023-05-08T08:08:36;98946.06;;;18.86;80.55
13312;BME280;34033;48.672;9.376;2023-05-08T08:11:01;98938.72;;;18.89;80.83
13312;BME280;34033;48.672;9.376;2023-05-08T08:13:26;98939.44;;;18.93;80.83
13312;BME280;34033;48.672;9.376;2023-05-08T08:15:52;98937.78;;;18.95;80.38
13312;BME280;34033;48.672;9.376;2023-05-08T08:18:17;98936.41;;;19.03;80.37
13312;BME280;34033;48.672;9.376;2023-05-08T08:20:42;98937.44;;;19.13;80.31
13312;BME280;34033;48.672;9.376;2023-05-08T08:23:08;98938.44;;;19.23;79.81
13312;BME280;34033;48.672;9.376;2023-05-08T08:25:33;98931.31;;;19.34;79.70
13312;BME280;34033;48.672;9.376;2023-05-08T08:28:05;98941.22;;;19.46;78.75
13312;BME280;34033;48.672;9.376;2023-05-08T08:30:30;98934.97;;;19.54;78.39
13312;BME280;34033;48.672;9.376;2023-05-08T08:32:58;98946.06;;;19.65;77.53
13312;BME280;34033;48.672;9.376;2023-05-08T08:35:29;98940.66;;;19.71;77.19
13312;BME280;34033;48.672;9.376;2023-05-08T08:37:58;98947.50;;;19.73;77.32
13312;BME280;34033;48.672;9.376;2023-05-08T08:40:26;98936.44;;;19.79;76.63
13312;BME280;34033;48.672;9.376;2023-05-08T08:42:53;98937.94;;;19.83;75.98
13312;BME280;34033;48.672;9.376;2023-05-08T08:45:22;98940.97;;;19.92;76.04
13312;BME280;34033;48.672;9.376;2023-05-08T08:48:01;98934.97;;;20.07;76.40
13312;BME280;34033;48.672;9.376;2023-05-08T08:50:30;98933.38;;;20.22;76.20
13312;BME280;34033;48.672;9.376;2023-05-08T08:53:36;98935.69;;;20.43;74.60
13312;BME280;34033;48.672;9.376;2023-05-08T08:56:15;98939.16;;;20.51;73.66
13312;BME280;34033;48.672;9.376;2023-05-08T08:58:48;98939.31;;;20.60;73.51
13312;BME280;34033;48.672;9.376;2023-05-08T09:01:17;98931.75;;;20.69;73.20
13312;BME280;34033;48.672;9.376;2023-05-08T09:03:48;98934.72;;;20.78;73.12
13312;BME280;34033;48.672;9.376;2023-05-08T09:06:19;98933.31;;;20.87;73.05
13312;BME280;34033;48.672;9.376;2023-05-08T09:08:54;98930.06;;;21.01;71.85
13312;BME280;34033;48.672;9.376;2023-05-08T09:11:38;98927.91;;;21.21;70.96
13312;BME280;34033;48.672;9.376;2023-05-08T09:14:04;98935.00;;;21.42;68.80
13312;BME280;34033;48.672;9.376;2023-05-08T09:16:29;98930.94;;;21.55;68.78
13312;BME280;34033;48.672;9.376;2023-05-08T09:18:58;98936.28;;;21.53;67.82
13312;BME280;34033;48.672;9.376;2023-05-08T09:21:29;98933.31;;;21.44;68.32
13312;BME280;34033;48.672;9.376;2023-05-08T09:23:56;98934.06;;;21.45;68.63
13312;BME280;34033;48.672;9.376;2023-05-08T09:26:47;98934.44;;;21.47;67.56
13312;BME280;34033;48.672;9.376;2023-05-08T09:29:21;98941.69;;;21.35;68.18
13312;BME280;34033;48.672;9.376;2023-05-08T09:31:51;98929.13;;;21.20;68.90
13312;BME280;34033;48.672;9.376;2023-05-08T09:34:26;98930.09;;;21.13;69.21
13312;BME280;34033;48.672;9.376;2023-05-08T09:37:10;98927.09;;;21.20;69.46
13312;BME280;34033;48.672;9.376;2023-05-08T09:39:35;98924.94;;;21.25;69.80
13312;BME280;34033;48.672;9.376;2023-05-08T09:42:02;98928.94;;;21.27;68.60
13312;BME280;34033;48.672;9.376;2023-05-08T09:47:15;98932.91;;;21.17;68.05
13312;BME280;34033;48.672;9.376;2023-05-08T09:50:00;98933.25;;;21.03;67.65
13312;BME280;34033;48.672;9.376;2023-05-08T09:52:26;98937.00;;;21.00;67.70
13312;BME280;34033;48.672;9.376;2023-05-08T09:57:29;98930.22;;;21.10;68.18
13312;BME280;34033;48.672;9.376;2023-05-08T10:00:08;98933.22;;;21.19;68.36
13312;BME280;34033;48.672;9.376;2023-05-08T10:02:39;98933.13;;;21.23;67.70
13312;BME280;34033;48.672;9.376;2023-05-08T10:05:31;98933.34;;;21.15;67.70
13312;BME280;34033;48.672;9.376;2023-05-08T10:07:57;98929.31;;;21.13;66.97
13312;BME280;34033;48.672;9.376;2023-05-08T10:10:25;98932.53;;;21.15;67.21
13312;BME280;34033;48.672;9.376;2023-05-08T10:12:53;98935.00;;;21.13;67.54
13312;BME280;34033;48.672;9.376;2023-05-08T10:15:22;98937.41;;;21.14;67.90
13312;BME280;34033;48.672;9.376;2023-05-08T10:18:08;98935.47;;;21.11;68.11
13312;BME280;34033;48.672;9.376;2023-05-08T10:20:38;98938.56;;;21.01;67.94
13312;BME280;34033;48.672;9.376;2023-05-08T10:23:06;98935.59;;;20.92;68.32
13312;BME280;34033;48.672;9.376;2023-05-08T10:25:40;98935.78;;;20.85;68.80
13312;BME280;34033;48.672;9.376;2023-05-08T10:28:12;98940.63;;;20.71;69.41
13312;BME280;34033;48.672;9.376;2023-05-08T10:30:42;98931.22;;;20.58;69.69
13312;BME280;34033;48.672;9.376;2023-05-08T10:33:09;98932.84;;;20.59;69.60
13312;BME280;34033;48.672;9.376;2023-05-08T10:35:38;98929.72;;;20.54;69.53
13312;BME280;34033;48.672;9.376;2023-05-08T10:38:07;98920.78;;;20.55;69.52
13312;BME280;34033;48.672;9.376;2023-05-08T10:40:32;98926.72;;;20.61;69.71
13312;BME280;34033;48.672;9.376;2023-05-08T10:42:59;98924.41;;;20.56;69.75
13312;BME280;34033;48.672;9.376;2023-05-08T10:45:25;98936.75;;;20.33;71.05
13312;BME280;34033;48.672;9.376;2023-05-08T10:48:01;98935.25;;;20.45;70.55
13312;BME280;34033;48.672;9.376;2023-05-08T10:50:52;98931.06;;;20.49;69.63
13312;BME280;34033;48.672;9.376;2023-05-08T10:53:24;98923.91;;;20.45;70.08
13312;BME280;34033;48.672;9.376;2023-05-08T10:55:54;98922.03;;;20.38;70.06
13312;BME280;34033;48.672;9.376;2023-05-08T11:03:15;98925.91;;;20.12;70.63
13312;BME280;34033;48.672;9.376;2023-05-08T11:05:46;98927.06;;;20.14;70.67
13312;BME280;34033;48.672;9.376;2023-05-08T11:08:16;98920.03;;;20.03;71.19
13312;BME280;34033;48.672;9.376;2023-05-08T11:10:43;98923.50;;;19.94;72.43
13312;BME280;34033;48.672;9.376;2023-05-08T11:13:13;98922.88;;;20.03;72.71
13312;BME280;34033;48.672;9.376;2023-05-08T11:15:40;98920.78;;;20.07;73.33
13312;BME280;34033;48.672;9.376;2023-05-08T11:18:07;98931.22;;;20.10;74.28
13312;BME280;34033;48.672;9.376;2023-05-08T11:20:41;98922.00;;;20.06;73.09
13312;BME280;34033;48.672;9.376;2023-05-08T11:25:57;98925.28;;;20.20;72.23
13312;BME280;34033;48.672;9.376;2023-05-08T11:28:24;98925.13;;;20.27;73.36
13312;BME280;34033;48.672;9.376;2023-05-08T11:30:52;98917.72;;;20.30;74.33
13312;BME280;34033;48.672;9.376;2023-05-08T11:33:19;98918.53;;;20.30;74.33
13312;BME280;34033;48.672;9.376;2023-05-08T11:35:59;98910.44;;;20.29;74.42
13312;BME280;34033;48.672;9.376;2023-05-08T11:41:07;98909.75;;;20.25;75.38
13312;BME280;34033;48.672;9.376;2023-05-08T11:46:03;98917.69;;;20.33;75.79
13312;BME280;34033;48.672;9.376;2023-05-08T11:48:29;98911.22;;;20.33;75.85
13312;BME280;34033;48.672;9.376;2023-05-08T11:50:55;98912.34;;;20.35;75.93
13312;BME280;34033;48.672;9.376;2023-05-08T11:53:21;98915.91;;;20.39;75.79
13312;BME280;34033;48.672;9.376;2023-05-08T11:55:47;98908.16;;;20.40;75.55
13312;BME280;34033;48.672;9.376;2023-05-08T11:58:16;98905.94;;;20.48;74.94
13312;BME280;34033;48.672;9.376;2023-05-08T12:00:42;98905.78;;;20.55;74.81
13312;BME280;34033;48.672;9.376;2023-05-08T12:03:14;98908.50;;;20.58;74.74
13312;BME280;34033;48.672;9.376;2023-05-08T12:05:39;98906.03;;;20.60;74.23
13312;BME280;34033;48.672;9.376;2023-05-08T12:08:06;98909.13;;;20.66;74.23
13312;BME280;34033;48.672;9.376;2023-05-08T12:10:38;98914.25;;;20.71;74.45
13312;BME280;34033;48.672;9.376;2023-05-08T12:13:14;98917.00;;;20.74;74.95
13312;BME280;34033;48.672;9.376;2023-05-08T12:15:41;98908.38;;;20.78;73.93
13312;BME280;34033;48.672;9.376;2023-05-08T12:18:06;98913.97;;;20.81;73.34
13312;BME280;34033;48.672;9.376;2023-05-08T12:20:31;98915.44;;;20.86;73.02
13312;BME280;34033;48.672;9.376;2023-05-08T12:22:57;98917.66;;;20.95;72.35
13312;BME280;34033;48.672;9.376;2023-05-08T12:25:24;98902.34;;;21.05;71.50
13312;BME280;34033;48.672;9.376;2023-05-08T12:27:50;98904.91;;;21.15;71.33
13312;BME280;34033;48.672;9.376;2023-05-08T12:30:15;98899.47;;;21.21;70.55
13312;BME280;34033;48.672;9.376;2023-05-08T12:32:42;98911.31;;;21.32;70.60
13312;BME280;34033;48.672;9.376;2023-05-08T12:35:09;98908.16;;;21.43;70.75
13312;BME280;34033;48.672;9.376;2023-05-08T12:37:35;98909.63;;;21.47;70.13
13312;BME280;34033;48.672;9.376;2023-05-08T12:40:02;98906.91;;;21.56;70.11
13312;BME280;34033;48.672;9.376;2023-05-08T12:42:48;98906.13;;;21.69;69.20
13312;BME280;34033;48.672;9.376;2023-05-08T12:45:22;98905.47;;;21.77;69.71
13312;BME280;34033;48.672;9.376;2023-05-08T12:47:48;98903.28;;;21.94;68.31
13312;BME280;34033;48.672;9.376;2023-05-08T12:50:15;98905.13;;;22.13;67.06
13312;BME280;34033;48.672;9.376;2023-05-08T12:52:40;98905.44;;;22.28;68.06
13312;BME280;34033;48.672;9.376;2023-05-08T12:55:22;98912.72;;;22.29;68.64
13312;BME280;34033;48.672;9.376;2023-05-08T12:57:48;98917.16;;;22.42;67.24
13312;BME280;34033;48.672;9.376;2023-05-08T13:00:15;98908.59;;;22.42;67.73
13312;BME280;34033;48.672;9.376;2023-05-08T13:02:53;98910.94;;;22.57;65.65
13312;BME280;34033;48.672;9.376;2023-05-08T13:05:22;98912.97;;;22.69;65.00
13312;BME280;34033;48.672;9.376;2023-05-08T13:07:48;98906.50;;;22.56;65.70
13312;BME280;34033;48.672;9.376;2023-05-08T13:10:14;98918.66;;;22.69;65.93
13312;BME280;34033;48.672;9.376;2023-05-08T13:12:39;98917.53;;;22.79;66.18
13312;BME280;34033;48.672;9.376;2023-05-08T13:15:05;98912.63;;;22.79;66.23
13312;BME280;34033;48.672;9.376;2023-05-08T13:17:30;98919.59;;;22.66;65.04
13312;BME280;34033;48.672;9.376;2023-05-08T13:19:56;98898.66;;;22.60;65.68
13312;BME280;34033;48.672;9.376;2023-05-08T13:22:21;98901.72;;;22.65;66.20
13312;BME280;34033;48.672;9.376;2023-05-08T13:24:51;98904.34;;;22.60;65.00
13312;BME280;34033;48.672;9.376;2023-05-08T13:27:16;98905.47;;;22.75;65.26
13312;BME280;34033;48.672;9.376;2023-05-08T13:29:41;98904.97;;;22.42;65.67
13312;BME280;34033;48.672;9.376;2023-05-08T13:32:07;98896.13;;;22.62;64.65
13312;BME280;34033;48.672;9.376;2023-05-08T13:34:32;98898.16;;;22.74;65.20
13312;BME280;34033;48.672;9.376;2023-05-08T13:36:57;98898.56;;;22.85;63.71
13312;BME280;34033;48.672;9.376;2023-05-08T13:39:23;98896.72;;;22.91;64.18
13312;BME280;34033;48.672;9.376;2023-05-08T13:41:48;98889.97;;;22.98;63.79
13312;BME280;34033;48.672;9.376;2023-05-08T13:44:13;98890.97;;;23.04;63.58
13312;BME280;34033;48.672;9.376;2023-05-08T13:46:39;98884.31;;;23.07;62.96
13312;BME280;34033;48.672;9.376;2023-05-08T13:49:04;98878.69;;;22.94;62.85
13312;BME280;34033;48.672;9.376;2023-05-08T13:51:29;98879.97;;;22.93;62.10